ΕΜΥ, Εθνική Μετεωρολογική Υπηρεσία - Δελτία Καιρού, Προγνώσεις

ΑΕΡΟΝΑΥΤΙΛΙΑ

GREEK AIRPORTS CODES

TAF LGAV 222300Z 2300/2324 34015KT 9999 FEW015 SCT030 BKN070 TEMPO 2303/2312 01020G30KT PROB40 TEMPO 2303/2318 4000 SN SCT008 BKN020 OVC040 BECMG 2318/2320 VRB05KT=

EUROPEAN AIRPORTS CODES

LFPO 230100Z 07005KT 9000 OVC011 04/03 Q1036 NOSIG=